Time;durP1;ratioP1;P1;durP2;ratioP2;P2;SDS_P1;SDS_P2;PMS_P1;PMS_P2;Temp;Humidity;BMP_temperature;BMP_pressure;BME280_temperature;BME280_humidity;BME280_pressure;Samples;Min_cycle;Max_cycle;Signal;HPM_P1;HPM_P2
2023/09/09 06:49:26;;;;;;;15.40;9.02;;;;;;;20.39;77.06;96740.28;2082757;28;20564;-74
2023/09/09 06:51:39;;;;;;;18.70;9.35;;;;;;;20.68;75.64;96747.63;2100880;27;20548;-74
2023/09/09 06:52:40;;;;;;;17.88;9.80;;;;;;;20.74;75.40;96741.00;2099550;28;20196;-74
2023/09/09 06:53:42;;;;;;;14.18;8.73;;;;;;;20.71;75.35;96748.22;2095659;28;20203;-74
2023/09/09 06:54:43;;;;;;;15.20;8.77;;;;;;;21.16;74.04;96740.94;2080237;28;20249;-75
2023/09/09 06:55:47;;;;;;;12.07;8.75;;;;;;;21.36;73.59;96745.38;2080578;28;20744;-74
2023/09/09 06:56:48;;;;;;;23.95;8.82;;;;;;;21.56;72.56;96745.50;2081866;28;20238;-73
2023/09/09 06:57:50;;;;;;;11.35;8.88;;;;;;;21.25;73.11;96740.16;2082013;28;20620;-74
2023/09/09 06:58:51;;;;;;;12.02;9.13;;;;;;;21.52;73.28;96750.19;2079756;28;20205;-74
2023/09/09 06:59:53;;;;;;;12.65;8.50;;;;;;;21.76;72.99;96742.88;2073539;28;20197;-74
2023/09/09 07:00:54;;;;;;;12.27;8.75;;;;;;;21.94;72.10;96743.91;2072766;28;20206;-74
2023/09/09 07:01:55;;;;;;;25.55;8.07;;;;;;;22.04;71.38;96745.72;2073708;28;20256;-74
2023/09/09 07:02:57;;;;;;;13.73;8.52;;;;;;;22.14;71.36;96744.78;2073813;28;20202;-74
2023/09/09 07:03:59;;;;;;;14.15;10.02;;;;;;;22.56;70.51;96746.31;2072171;28;20553;-76
2023/09/09 07:05:02;;;;;;;14.25;9.10;;;;;;;22.63;70.47;96751.94;2074535;28;20197;-76
2023/09/09 07:06:04;;;;;;;16.52;8.45;;;;;;;22.59;69.50;96751.38;2076357;28;20675;-76
2023/09/09 07:07:06;;;;;;;12.70;7.93;;;;;;;22.98;69.29;96748.66;2075611;28;21120;-76
2023/09/09 07:08:15;;;;;;;11.60;7.55;;;;;;;23.15;68.89;96755.09;2075707;28;20201;-75
2023/09/09 07:09:16;;;;;;;13.20;8.35;;;;;;;23.18;67.92;96750.47;2074122;28;20220;-76
2023/09/09 07:10:18;;;;;;;14.32;7.72;;;;;;;23.36;68.00;96753.19;2073028;28;20229;-76
2023/09/09 07:11:20;;;;;;;15.98;8.05;;;;;;;23.42;67.31;96752.63;2070653;28;20218;-76
2023/09/09 07:12:21;;;;;;;13.20;8.07;;;;;;;23.51;67.56;96754.41;2070907;28;20205;-75
2023/09/09 07:13:23;;;;;;;12.65;7.88;;;;;;;23.84;66.27;96753.97;2074605;28;20204;-76
2023/09/09 07:14:25;;;;;;;11.73;7.88;;;;;;;23.98;66.09;96752.66;2073590;28;20869;-76
2023/09/09 07:15:26;;;;;;;10.02;7.15;;;;;;;24.67;64.54;96755.66;2074388;28;20200;-75
2023/09/09 07:16:31;;;;;;;14.38;8.15;;;;;;;24.70;63.70;96752.69;2074799;28;20212;-75
2023/09/09 07:17:33;;;;;;;8.50;7.20;;;;;;;24.60;64.40;96752.75;2074090;28;20194;-76
2023/09/09 07:18:34;;;;;;;11.23;7.47;;;;;;;24.45;64.65;96757.78;2074333;28;20450;-75
2023/09/09 07:19:36;;;;;;;10.00;6.63;;;;;;;24.58;64.61;96752.91;2073011;28;20423;-74
2023/09/09 07:20:38;;;;;;;13.87;7.70;;;;;;;24.53;64.76;96755.19;2072139;28;20423;-74
2023/09/09 07:21:40;;;;;;;9.60;6.20;;;;;;;24.99;63.75;96749.72;2071390;28;21148;-74
2023/09/09 07:22:41;;;;;;;8.00;6.60;;;;;;;25.16;62.58;96758.69;2072507;28;20426;-74
2023/09/09 07:23:43;;;;;;;7.20;6.07;;;;;;;25.22;62.88;96752.72;2073939;28;20420;-74
2023/09/09 07:24:44;;;;;;;8.67;6.90;;;;;;;24.99;63.51;96759.56;2074474;28;20430;-73
2023/09/09 07:25:49;;;;;;;11.37;6.40;;;;;;;25.14;63.24;96762.50;2074147;28;20482;-72
2023/09/09 07:26:50;;;;;;;16.40;6.77;;;;;;;25.41;62.25;96757.03;2075058;28;20426;-72
2023/09/09 07:27:52;;;;;;;11.80;7.63;;;;;;;25.77;62.05;96758.69;2070364;28;21096;-72
2023/09/09 07:28:53;;;;;;;7.20;5.80;;;;;;;25.65;61.50;96750.13;2072650;28;20778;-72
2023/09/09 07:29:54;;;;;;;13.00;6.40;;;;;;;25.87;61.43;96766.56;2074118;28;20477;-72
2023/09/09 07:31:01;;;;;;;8.03;6.23;;;;;;;26.29;60.73;96763.03;2073530;28;20429;-72
2023/09/09 07:32:03;;;;;;;6.63;5.97;;;;;;;26.64;59.92;96760.22;2073387;28;20438;-74
2023/09/09 07:33:04;;;;;;;11.77;6.20;;;;;;;27.27;57.43;96766.72;2072674;28;20524;-74
2023/09/09 07:34:08;;;;;;;8.50;5.90;;;;;;;27.43;57.15;96757.84;2070206;28;20458;-75
2023/09/09 07:35:09;;;;;;;7.80;5.80;;;;;;;27.20;58.23;96766.56;2072138;28;20434;-74
2023/09/09 07:36:11;;;;;;;8.13;6.77;;;;;;;27.57;56.70;96760.84;2072901;28;20426;-74
2023/09/09 07:37:12;;;;;;;7.50;5.43;;;;;;;27.60;57.08;96760.47;2074099;28;20423;-72
2023/09/09 07:38:14;;;;;;;8.40;6.00;;;;;;;27.00;58.11;96760.75;2070525;28;20428;-72
2023/09/09 07:39:15;;;;;;;9.97;6.23;;;;;;;26.67;58.99;96759.91;2070819;28;20455;-72
2023/09/09 07:40:17;;;;;;;12.27;6.50;;;;;;;26.81;59.49;96753.06;2073922;28;20418;-72
2023/09/09 07:41:18;;;;;;;8.80;7.10;;;;;;;26.97;58.58;96758.41;2074648;28;20438;-73
2023/09/09 07:42:20;;;;;;;10.00;6.37;;;;;;;27.02;59.05;96753.38;2074608;28;20435;-72
2023/09/09 07:43:22;;;;;;;9.20;5.60;;;;;;;27.51;57.68;96763.16;2073320;28;20886;-72
2023/09/09 07:44:23;;;;;;;9.53;6.27;;;;;;;27.25;58.20;96760.72;2073059;28;20559;-75
2023/09/09 07:45:24;;;;;;;10.40;5.87;;;;;;;27.34;58.32;96759.69;2076969;28;20422;-73
2023/09/09 07:46:28;;;;;;;8.60;5.93;;;;;;;27.29;58.46;96756.69;2074143;28;20497;-72
2023/09/09 07:47:29;;;;;;;10.50;6.20;;;;;;;27.41;57.81;96759.84;2072786;28;20474;-72
2023/09/09 07:48:30;;;;;;;10.60;5.40;;;;;;;28.06;56.94;96754.41;2073185;28;20772;-72
2023/09/09 07:49:35;;;;;;;9.23;6.67;;;;;;;28.82;54.95;96757.28;2070138;28;20468;-72
2023/09/09 07:50:36;;;;;;;9.53;5.70;;;;;;;28.56;55.63;96758.47;2070500;28;20481;-73
2023/09/09 07:51:38;;;;;;;9.00;5.90;;;;;;;28.39;56.09;96764.97;2070468;28;20810;-72
2023/09/09 07:52:40;;;;;;;9.07;5.43;;;;;;;28.41;55.67;96763.75;2070970;28;20478;-73
2023/09/09 07:53:41;;;;;;;7.67;4.97;;;;;;;28.29;56.50;96768.72;2073538;28;20437;-72
2023/09/09 07:54:43;;;;;;;8.33;5.40;;;;;;;28.73;55.48;96753.00;2075022;28;20477;-72
2023/09/09 07:55:47;;;;;;;6.73;5.40;;;;;;;28.57;55.67;96759.28;2071290;28;20519;-73
2023/09/09 07:56:48;;;;;;;7.27;5.63;;;;;;;29.04;55.10;96752.03;2071939;28;20455;-72
2023/09/09 07:57:50;;;;;;;6.10;5.40;;;;;;;29.42;54.17;96755.56;2070475;28;20489;-72
2023/09/09 07:58:51;;;;;;;9.40;4.80;;;;;;;29.16;54.96;96764.03;2072398;28;20427;-72
2023/09/09 07:59:53;;;;;;;7.60;5.30;;;;;;;29.04;55.18;96769.00;2072587;28;20489;-72
2023/09/09 08:01:01;;;;;;;13.23;5.83;;;;;;;29.48;54.10;96760.19;2073171;28;20457;-72
2023/09/09 08:02:03;;;;;;;10.20;5.50;;;;;;;29.17;54.74;96765.69;2074687;28;20434;-73
2023/09/09 08:03:06;;;;;;;6.87;5.30;;;;;;;29.35;54.83;96770.75;2070284;28;20427;-72
2023/09/09 08:04:08;;;;;;;6.90;5.00;;;;;;;29.23;55.25;96764.97;2068803;28;20974;-72
2023/09/09 08:05:10;;;;;;;8.77;5.90;;;;;;;29.06;55.19;96766.97;2065585;28;20459;-73
2023/09/09 08:06:11;;;;;;;8.57;5.83;;;;;;;29.23;55.03;96770.34;2066932;28;20432;-72
2023/09/09 08:07:13;;;;;;;13.47;5.93;;;;;;;29.09;55.24;96769.31;2066898;28;20486;-72
2023/09/09 08:08:15;;;;;;;8.50;5.47;;;;;;;29.39;54.74;96772.03;2068560;28;20464;-72
2023/09/09 08:09:17;;;;;;;7.03;6.30;;;;;;;29.63;54.98;96776.31;2068987;28;20521;-72
2023/09/09 08:10:20;;;;;;;10.43;5.67;;;;;;;29.72;53.96;96770.84;2068103;28;20428;-72
2023/09/09 08:11:22;;;;;;;10.30;6.80;;;;;;;29.65;54.21;96768.06;2068459;28;20955;-73
2023/09/09 08:12:23;;;;;;;8.30;6.10;;;;;;;29.80;54.01;96768.88;2067728;28;20431;-73
2023/09/09 08:13:26;;;;;;;9.17;5.57;;;;;;;30.23;53.36;96772.72;2067176;28;20486;-72
2023/09/09 08:14:27;;;;;;;7.17;5.77;;;;;;;29.91;54.39;96769.47;2065196;28;20555;-72
2023/09/09 08:15:29;;;;;;;6.67;5.97;;;;;;;29.60;54.61;96765.94;2068427;28;21075;-72
2023/09/09 08:16:41;;;;;;;8.13;5.70;;;;;;;29.45;54.65;96770.47;2067609;28;20820;-72
2023/09/09 08:17:43;;;;;;;12.67;5.90;;;;;;;29.62;54.62;96774.66;2064964;28;20447;-72
2023/09/09 08:18:44;;;;;;;7.20;5.93;;;;;;;29.44;54.83;96777.69;2065016;28;20490;-73
2023/09/09 08:19:46;;;;;;;8.47;6.23;;;;;;;29.48;55.00;96772.78;2068050;28;20427;-73
2023/09/09 08:20:51;;;;;;;10.80;6.50;;;;;;;29.53;54.57;96778.44;2068464;28;20435;-72
2023/09/09 08:21:52;;;;;;;9.03;6.10;;;;;;;29.61;54.62;96782.88;2069179;28;20431;-73
2023/09/09 08:22:54;;;;;;;9.97;6.40;;;;;;;30.03;53.87;96778.72;2068400;28;20485;-73
2023/09/09 08:24:01;;;;;;;8.83;5.93;;;;;;;29.89;53.38;96783.13;2065700;28;21159;-72
2023/09/09 08:25:03;;;;;;;9.80;6.43;;;;;;;29.70;54.72;96779.09;2064834;28;20459;-72
2023/09/09 08:26:05;;;;;;;11.50;6.17;;;;;;;29.74;54.59;96782.25;2064973;28;20490;-72
2023/09/09 08:27:06;;;;;;;12.13;7.03;;;;;;;29.39;54.63;96776.59;2067211;28;21034;-72
2023/09/09 08:28:08;;;;;;;9.30;6.77;;;;;;;29.25;54.52;96778.22;2068948;28;20439;-73
2023/09/09 08:29:09;;;;;;;8.37;6.70;;;;;;;29.34;55.08;96784.38;2064461;28;20468;-72
2023/09/09 08:30:11;;;;;;;8.10;6.20;;;;;;;29.12;55.61;96784.22;2065780;28;20424;-72
2023/09/09 08:31:12;;;;;;;11.27;6.30;;;;;;;28.64;56.67;96779.88;2064638;28;20451;-72
2023/09/09 08:32:14;;;;;;;9.50;5.80;;;;;;;28.71;57.18;96782.72;2065500;28;20496;-72
2023/09/09 08:33:15;;;;;;;10.33;5.67;;;;;;;29.08;56.68;96783.75;2068745;28;20423;-72
2023/09/09 08:34:17;;;;;;;8.80;5.90;;;;;;;29.14;56.33;96780.34;2067394;28;20463;-73
2023/09/09 08:35:18;;;;;;;10.53;6.10;;;;;;;28.90;56.53;96781.41;2064946;28;21174;-72
2023/09/09 08:36:20;;;;;;;7.73;6.13;;;;;;;28.84;57.04;96787.50;2064806;28;20428;-72
2023/09/09 08:37:22;;;;;;;8.70;6.90;;;;;;;28.88;57.08;96782.59;2070013;28;20415;-73
2023/09/09 08:38:23;;;;;;;13.27;5.80;;;;;;;28.95;57.64;96783.53;2068456;28;20436;-73
2023/09/09 08:39:25;;;;;;;9.77;7.33;;;;;;;28.93;57.17;96780.19;2067358;28;20996;-72
2023/09/09 08:40:26;;;;;;;7.00;5.73;;;;;;;28.82;57.40;96778.75;2068619;28;20916;-72
2023/09/09 08:41:48;;;;;;;9.33;6.70;;;;;;;28.97;57.13;96785.00;2067847;28;20998;-73
2023/09/09 08:43:05;;;;;;;8.50;5.70;;;;;;;28.77;57.22;96784.69;2064778;28;20487;-72
2023/09/09 08:44:11;;;;;;;10.68;6.57;;;;;;;28.52;57.51;96789.38;2067919;28;20481;-72
2023/09/09 08:45:36;;;;;;;15.40;6.85;;;;;;;27.99;58.44;96776.56;2066639;28;20202;-72
2023/09/09 08:46:38;;;;;;;15.67;5.90;;;;;;;28.88;57.21;96778.03;2067320;28;20198;-73
2023/09/09 08:47:41;;;;;;;16.10;6.90;;;;;;;29.13;56.34;96778.66;2068729;28;21224;-73
2023/09/09 08:48:43;;;;;;;11.07;7.20;;;;;;;28.10;57.72;96790.63;2067490;28;20205;-73
2023/09/09 08:49:48;;;;;;;10.43;6.55;;;;;;;28.09;58.09;96778.25;2068897;28;20425;-72
2023/09/09 08:50:53;;;;;;;11.43;6.07;;;;;;;28.13;58.86;96784.91;2071806;28;20202;-72
2023/09/09 08:52:03;;;;;;;8.00;5.75;;;;;;;28.95;57.59;96765.56;2071617;28;20212;-72
2023/09/09 08:53:05;;;;;;;8.18;6.60;;;;;;;29.65;56.11;96782.34;2068232;28;20208;-72
2023/09/09 08:54:10;;;;;;;7.70;6.40;;;;;;;29.43;55.92;96780.56;2066601;28;20229;-72
2023/09/09 08:55:12;;;;;;;10.97;6.33;;;;;;;29.29;55.82;96782.22;2067959;28;20585;-72
2023/09/09 08:56:13;;;;;;;8.13;6.63;;;;;;;28.84;57.29;96790.19;2068289;28;20431;-73
2023/09/09 08:57:16;;;;;;;10.17;6.57;;;;;;;28.78;57.42;96786.34;2068942;28;20423;-72
2023/09/09 08:58:17;;;;;;;15.05;5.60;;;;;;;29.16;56.21;96789.03;2069035;28;20523;-73
2023/09/09 08:59:22;;;;;;;7.45;6.40;;;;;;;29.19;56.57;96787.84;2066608;28;20217;-72
2023/09/09 09:00:32;;;;;;;7.50;5.88;;;;;;;29.34;55.82;96789.75;2067604;28;20285;-72
2023/09/09 09:01:35;;;;;;;19.30;6.38;;;;;;;29.51;53.70;96783.19;2067616;28;20306;-73
2023/09/09 09:02:37;;;;;;;7.00;5.40;;;;;;;29.37;53.05;96786.69;2068031;28;20285;-72
2023/09/09 09:03:40;;;;;;;7.47;5.43;;;;;;;29.46;52.83;96786.44;2064261;28;20229;-72
2023/09/09 09:04:43;;;;;;;12.90;5.37;;;;;;;29.15;53.19;96786.53;2065405;28;20420;-72
2023/09/09 09:05:45;;;;;;;13.17;5.23;;;;;;;29.16;53.18;96780.97;2069134;28;20486;-72
2023/09/09 09:06:47;;;;;;;8.10;4.70;;;;;;;29.23;53.59;96778.41;2067189;28;20429;-72
2023/09/09 09:07:49;;;;;;;8.40;5.00;;;;;;;29.97;52.84;96783.00;2068072;28;20538;-72
2023/09/09 09:08:50;;;;;;;8.77;5.50;;;;;;;30.61;51.11;96778.78;2070368;28;20565;-72
2023/09/09 09:09:54;;;;;;;9.33;6.13;;;;;;;30.72;50.11;96779.28;2070056;28;20908;-73
2023/09/09 09:10:58;;;;;;;7.87;4.50;;;;;;;30.52;50.16;96774.50;2067433;28;20419;-72
2023/09/09 09:12:03;;;;;;;6.53;5.00;;;;;;;30.20;50.71;96776.63;2066431;28;21017;-72
2023/09/09 09:13:04;;;;;;;8.30;4.87;;;;;;;30.58;50.44;96775.63;2068948;28;20460;-73
2023/09/09 09:14:09;;;;;;;16.93;5.60;;;;;;;30.82;50.01;96778.94;2068111;28;20451;-72
2023/09/09 09:15:11;;;;;;;7.13;4.80;;;;;;;31.32;49.11;96784.34;2067103;28;20564;-73
2023/09/09 09:16:13;;;;;;;13.23;5.03;;;;;;;31.86;47.71;96777.44;2068084;28;20435;-73
2023/09/09 09:17:18;;;;;;;8.00;4.80;;;;;;;32.01;48.11;96785.38;2066459;28;20420;-72
2023/09/09 09:18:19;;;;;;;9.80;5.00;;;;;;;31.80;47.45;96784.47;2068864;28;20438;-72
2023/09/09 09:19:29;;;;;;;15.27;5.20;;;;;;;31.55;48.04;96781.38;2066533;28;20811;-72
2023/09/09 09:20:33;;;;;;;12.53;5.27;;;;;;;31.42;47.80;96785.66;2066486;28;20508;-72
2023/09/09 09:21:35;;;;;;;10.10;5.10;;;;;;;32.17;47.55;96789.59;2064103;28;20966;-72
2023/09/09 09:22:38;;;;;;;7.90;4.33;;;;;;;31.73;47.42;96784.44;2068029;28;21002;-73
2023/09/09 09:23:46;;;;;;;8.63;4.43;;;;;;;31.59;47.43;96779.94;2065498;28;20485;-72
2023/09/09 09:24:48;;;;;;;8.43;4.63;;;;;;;30.91;47.66;96788.56;2064339;28;20512;-72
2023/09/09 09:25:49;;;;;;;9.60;4.70;;;;;;;30.78;48.64;96790.13;2065767;28;20420;-72
2023/09/09 09:26:52;;;;;;;8.80;4.37;;;;;;;31.23;48.50;96794.44;2068212;28;20923;-72
2023/09/09 09:27:57;;;;;;;8.80;4.70;;;;;;;31.32;47.07;96793.25;2064388;28;20484;-72
2023/09/09 09:29:05;;;;;;;5.47;4.00;;;;;;;31.53;47.17;96788.84;2064603;28;20533;-73
2023/09/09 09:30:08;;;;;;;8.20;4.70;;;;;;;30.82;48.33;96785.19;2064464;28;20490;-72
2023/09/09 09:31:22;;;;;;;5.93;4.53;;;;;;;30.77;46.50;96783.06;2065320;28;20464;-72
2023/09/09 09:32:38;;;;;;;6.40;3.90;;;;;;;30.55;46.93;96784.06;2068604;28;20771;-73
2023/09/09 09:33:39;;;;;;;6.17;4.40;;;;;;;30.48;47.82;96784.00;2065281;28;20889;-72
2023/09/09 09:34:41;;;;;;;8.37;4.73;;;;;;;30.25;47.58;96773.38;2066098;28;20528;-72
2023/09/09 09:35:43;;;;;;;10.90;4.80;;;;;;;30.19;47.63;96768.75;2067222;28;20835;-72
2023/09/09 09:36:45;;;;;;;6.93;4.47;;;;;;;30.28;47.69;96773.84;2064051;28;20429;-72
2023/09/09 09:37:55;;;;;;;7.83;4.10;;;;;;;30.80;47.71;96779.13;2067096;28;20467;-72
2023/09/09 09:38:57;;;;;;;9.63;4.33;;;;;;;31.06;48.18;96772.34;2066634;28;20452;-72
2023/09/09 09:40:04;;;;;;;6.00;4.50;;;;;;;31.42;48.33;96779.44;2066879;28;20432;-73
2023/09/09 09:41:05;;;;;;;13.30;5.03;;;;;;;31.63;48.00;96780.41;2065996;28;20424;-72
2023/09/09 09:42:11;;;;;;;7.80;5.00;;;;;;;32.61;46.64;96774.78;2065939;28;20424;-74
2023/09/09 09:43:20;;;;;;;10.23;4.90;;;;;;;31.98;46.03;96775.00;2066353;28;20428;-73
2023/09/09 09:44:21;;;;;;;10.20;6.47;;;;;;;31.82;47.29;96778.84;2068511;28;20498;-74
2023/09/09 09:45:25;;;;;;;5.40;4.20;;;;;;;31.74;47.02;96774.47;2067710;28;20450;-75
2023/09/09 09:46:26;;;;;;;7.13;4.80;;;;;;;32.06;46.96;96786.47;2068837;28;20820;-73
2023/09/09 09:47:41;;;;;;;8.90;5.00;;;;;;;30.95;48.11;96777.19;2067960;28;20838;-73
2023/09/09 09:48:44;;;;;;;10.73;4.77;;;;;;;31.23;48.85;96779.09;2067488;28;20428;-73
2023/09/09 09:49:46;;;;;;;7.00;5.37;;;;;;;31.58;48.22;96779.13;2068290;28;20479;-73
2023/09/09 09:50:51;;;;;;;9.83;4.83;;;;;;;31.94;48.81;96773.75;2067322;28;20510;-73
2023/09/09 09:51:53;;;;;;;10.50;5.00;;;;;;;32.70;47.53;96781.66;2066843;28;20427;-73
2023/09/09 09:52:59;;;;;;;7.50;4.80;;;;;;;32.76;46.95;96780.03;2066790;28;20457;-74
2023/09/09 09:54:01;;;;;;;7.60;4.50;;;;;;;32.95;46.26;96774.84;2067462;28;20460;-73
2023/09/09 09:55:03;;;;;;;11.80;5.37;;;;;;;33.45;45.99;96774.44;2068158;28;20895;-73
2023/09/09 09:56:05;;;;;;;8.13;4.90;;;;;;;33.96;45.49;96776.38;2067446;28;20427;-73
2023/09/09 09:57:07;;;;;;;6.57;4.63;;;;;;;33.09;45.42;96776.53;2068732;28;20455;-75
2023/09/09 09:58:12;;;;;;;6.80;4.97;;;;;;;32.94;46.47;96773.16;2067516;28;20428;-74
2023/09/09 09:59:14;;;;;;;16.93;4.70;;;;;;;33.51;46.24;96770.88;2069958;28;20494;-74
2023/09/09 10:00:16;;;;;;;8.77;4.53;;;;;;;34.02;45.37;96769.28;2067834;28;20910;-74
2023/09/09 10:01:18;;;;;;;9.93;4.67;;;;;;;33.42;45.81;96772.97;2068516;28;20423;-73
2023/09/09 10:02:20;;;;;;;6.80;4.00;;;;;;;33.89;45.59;96775.59;2068993;28;20436;-74
2023/09/09 10:03:23;;;;;;;9.20;4.70;;;;;;;33.88;44.56;96773.06;2065316;28;20424;-74
2023/09/09 10:04:30;;;;;;;8.67;4.70;;;;;;;34.17;44.30;96775.25;2063636;28;20870;-74
2023/09/09 10:05:33;;;;;;;11.60;4.63;;;;;;;34.51;44.11;96775.09;2066260;28;20428;-74
2023/09/09 10:06:37;;;;;;;7.50;4.20;;;;;;;34.75;42.61;96781.59;2069304;28;20506;-74
2023/09/09 10:07:49;;;;;;;8.23;4.40;;;;;;;33.97;42.84;96764.50;2068239;28;20477;-74
2023/09/09 10:09:18;;;;;;;6.67;4.60;;;;;;;31.15;47.82;96783.78;2068426;28;20479;-73
2023/09/09 10:10:24;;;;;;;7.73;4.60;;;;;;;32.97;46.20;96781.69;2067850;28;20677;-73
2023/09/09 10:11:31;;;;;;;10.13;4.50;;;;;;;33.56;45.36;96771.06;2064101;28;20479;-73
2023/09/09 10:12:45;;;;;;;8.27;5.10;;;;;;;34.67;44.29;96777.28;2065493;28;20455;-73
2023/09/09 10:14:05;;;;;;;5.73;4.40;;;;;;;35.41;43.14;96773.19;2067643;28;20428;-73
2023/09/09 10:15:07;;;;;;;5.23;4.03;;;;;;;35.07;43.53;96778.91;2068181;28;20472;-73
2023/09/09 10:16:09;;;;;;;14.33;4.73;;;;;;;35.12;42.80;96776.34;2069153;28;20431;-73
2023/09/09 10:17:12;;;;;;;5.90;4.53;;;;;;;35.64;42.45;96777.97;2069853;28;20423;-73
2023/09/09 10:18:15;;;;;;;7.33;4.27;;;;;;;35.53;41.55;96774.13;2068452;28;20423;-73
2023/09/09 10:19:18;;;;;;;8.93;4.73;;;;;;;35.31;41.81;96766.38;2068152;28;20460;-73
2023/09/09 10:20:23;;;;;;;7.00;4.30;;;;;;;35.69;42.29;96774.56;2063964;28;20519;-73
2023/09/09 10:21:27;;;;;;;7.47;3.93;;;;;;;36.47;41.39;96773.03;2066699;28;20518;-73
2023/09/09 10:22:44;;;;;;;6.67;4.50;;;;;;;36.26;41.16;96774.31;2067223;28;20427;-74
2023/09/09 10:23:47;;;;;;;6.43;4.87;;;;;;;36.80;40.49;96779.03;2065833;28;20896;-73
2023/09/09 10:24:50;;;;;;;8.00;4.37;;;;;;;36.09;40.70;96774.97;2065563;28;20435;-73
2023/09/09 10:25:53;;;;;;;9.13;4.30;;;;;;;35.41;41.99;96770.47;2066452;28;20794;-73
2023/09/09 10:26:56;;;;;;;10.20;3.90;;;;;;;35.78;42.36;96770.50;2068028;28;20435;-73
2023/09/09 10:27:59;;;;;;;7.83;4.30;;;;;;;36.43;40.27;96783.53;2067189;28;20442;-74
2023/09/09 10:29:01;;;;;;;6.63;4.37;;;;;;;36.01;40.45;96769.84;2067003;28;21090;-72
2023/09/09 10:30:04;;;;;;;6.30;3.67;;;;;;;35.85;40.29;96771.25;2067904;28;21253;-73
2023/09/09 10:31:12;;;;;;;7.50;4.60;;;;;;;35.73;40.08;96775.78;2067088;28;21087;-72
2023/09/09 10:32:15;;;;;;;8.83;3.83;;;;;;;35.63;41.67;96770.88;2065457;28;20428;-73
2023/09/09 10:33:20;;;;;;;6.57;3.90;;;;;;;36.79;40.58;96770.03;2066011;28;20884;-73
2023/09/09 10:34:22;;;;;;;6.03;3.93;;;;;;;37.62;38.98;96777.47;2065256;28;20974;-73
2023/09/09 10:35:24;;;;;;;7.83;3.60;;;;;;;36.97;40.02;96774.59;2065444;28;20924;-72
2023/09/09 10:36:29;;;;;;;11.23;4.27;;;;;;;37.54;38.92;96768.59;2066696;28;20469;-73
2023/09/09 10:37:33;;;;;;;8.20;4.93;;;;;;;38.34;37.57;96770.84;2063991;28;20454;-73
2023/09/09 10:38:34;;;;;;;5.30;3.70;;;;;;;37.62;37.98;96775.56;2064558;28;20459;-73
2023/09/09 10:39:37;;;;;;;5.00;4.17;;;;;;;36.46;38.56;96774.09;2075071;28;20568;-73
2023/09/09 10:40:39;;;;;;;9.77;4.50;;;;;;;36.44;38.79;96771.59;2077195;28;20422;-73
2023/09/09 10:41:42;;;;;;;8.07;4.30;;;;;;;36.33;39.33;96766.91;2075227;28;20758;-73
2023/09/09 10:42:44;;;;;;;9.93;4.03;;;;;;;36.56;38.83;96762.66;2074317;28;20427;-73
2023/09/09 10:43:45;;;;;;;10.87;4.30;;;;;;;36.52;39.30;96775.88;2074556;28;20509;-72
2023/09/09 10:44:50;;;;;;;14.20;4.57;;;;;;;36.90;39.42;96762.97;2075445;28;20431;-73
2023/09/09 10:45:52;;;;;;;6.50;4.30;;;;;;;37.20;38.69;96768.34;2071842;28;20798;-72
2023/09/09 10:46:55;;;;;;;6.37;3.90;;;;;;;35.69;39.87;96758.28;2074751;28;20426;-73
2023/09/09 10:48:01;;;;;;;6.00;4.20;;;;;;;36.55;39.78;96761.81;2075950;28;20434;-73
2023/09/09 10:49:04;;;;;;;12.23;4.10;;;;;;;36.99;39.19;96768.91;2075474;28;20466;-72
2023/09/09 10:50:06;;;;;;;9.33;4.00;;;;;;;36.33;40.06;96769.63;2075555;28;20423;-74
2023/09/09 10:51:07;;;;;;;6.87;4.43;;;;;;;36.68;39.17;96768.13;2071601;28;20474;-73
2023/09/09 10:52:30;;;;;;;14.07;3.70;;;;;;;36.30;39.30;96767.38;2071797;28;20437;-73
2023/09/09 10:53:32;;;;;;;14.07;4.90;;;;;;;36.74;38.88;96764.47;2075191;28;20470;-74
2023/09/09 10:54:34;;;;;;;8.73;4.03;;;;;;;37.44;38.42;96764.84;2077229;28;20453;-74
2023/09/09 10:55:36;;;;;;;8.20;4.00;;;;;;;36.78;38.29;96774.63;2074870;28;20415;-74
2023/09/09 10:56:48;;;;;;;8.60;4.87;;;;;;;36.72;39.12;96772.03;2074653;28;20481;-74
2023/09/09 10:57:57;;;;;;;7.23;4.23;;;;;;;37.11;38.56;96764.31;2075170;28;20430;-73
2023/09/09 10:59:14;;;;;;;7.97;3.90;;;;;;;37.11;38.86;96769.75;2074998;28;20455;-73
2023/09/09 11:00:41;;;;;;;5.50;3.70;;;;;;;37.33;39.12;96771.94;2075917;28;20476;-74
2023/09/09 11:01:42;;;;;;;6.33;3.73;;;;;;;37.93;37.43;96769.97;2075565;28;20426;-73
2023/09/09 11:02:46;;;;;;;9.30;4.13;;;;;;;37.22;38.58;96773.56;2076329;28;20507;-74
2023/09/09 11:03:48;;;;;;;8.13;3.87;;;;;;;36.71;39.49;96770.38;2076933;28;20445;-73
2023/09/09 11:05:09;;;;;;;5.90;3.97;;;;;;;36.32;40.06;96769.88;2075976;28;20435;-73
2023/09/09 11:06:37;;;;;;;6.87;4.03;;;;;;;36.85;39.56;96766.41;2076094;28;20441;-73
2023/09/09 11:07:43;;;;;;;4.53;3.30;;;;;;;37.47;38.16;96769.78;2072377;28;20478;-74
2023/09/09 11:08:46;;;;;;;8.20;3.53;;;;;;;37.96;37.95;96766.78;2073925;28;20422;-73
2023/09/09 11:09:52;;;;;;;4.63;3.50;;;;;;;37.77;38.24;96763.38;2074929;28;20431;-73
2023/09/09 11:11:06;;;;;;;7.37;4.00;;;;;;;38.86;37.40;96758.97;2075870;28;20435;-74
2023/09/09 11:12:13;;;;;;;7.40;4.00;;;;;;;38.58;37.46;96760.66;2075595;28;20476;-74
2023/09/09 11:13:14;;;;;;;7.27;4.00;;;;;;;38.66;37.28;96764.88;2075920;28;20427;-74
2023/09/09 11:14:18;;;;;;;6.87;4.17;;;;;;;38.82;36.81;96766.81;2075691;28;20458;-74
2023/09/09 11:15:25;;;;;;;12.63;4.13;;;;;;;38.99;36.92;96763.28;2075675;28;20853;-74
2023/09/09 11:16:35;;;;;;;6.60;3.23;;;;;;;39.48;36.03;96765.41;2082605;28;20504;-74
2023/09/09 11:17:41;;;;;;;11.10;4.03;;;;;;;39.45;36.35;96765.91;2080561;28;20500;-74
2023/09/09 11:18:43;;;;;;;5.37;3.50;;;;;;;37.70;36.92;96769.78;2075631;28;20422;-74
2023/09/09 11:19:45;;;;;;;8.30;3.67;;;;;;;37.69;37.94;96759.94;2073778;28;20434;-74
2023/09/09 11:20:47;;;;;;;5.50;3.90;;;;;;;37.70;37.46;96761.59;2076554;28;20491;-72
2023/09/09 11:21:51;;;;;;;10.90;4.93;;;;;;;38.31;37.31;96763.13;2082145;28;20485;-70
2023/09/09 11:22:52;;;;;;;8.00;3.80;;;;;;;35.14;40.42;96765.28;2082951;28;20425;-67
2023/09/09 11:23:55;;;;;;;7.20;3.47;;;;;;;34.46;41.66;96754.09;2075188;28;20423;-68
2023/09/09 11:24:58;;;;;;;6.70;4.97;;;;;;;34.97;41.20;96763.13;2076033;28;20453;-68
2023/09/09 11:26:01;;;;;;;10.30;4.17;;;;;;;35.94;40.45;96760.94;2074740;28;20430;-68
2023/09/09 11:27:05;;;;;;;8.73;3.37;;;;;;;37.13;39.16;96761.34;2074449;28;20447;-66
2023/09/09 11:28:07;;;;;;;7.33;3.77;;;;;;;37.83;38.23;96766.00;2071751;28;20518;-69
2023/09/09 11:29:09;;;;;;;11.93;4.13;;;;;;;36.91;37.65;96761.91;2071737;28;20949;-66
2023/09/09 11:30:42;;;;;;;6.50;4.07;;;;;;;37.55;38.36;96766.72;2073758;28;20472;-72
2023/09/09 11:31:44;;;;;;;9.33;3.50;;;;;;;36.80;38.37;96763.53;2075429;28;20486;-70
2023/09/09 11:32:48;;;;;;;8.03;3.87;;;;;;;35.26;39.82;96758.06;2077469;28;20512;-74
2023/09/09 11:33:53;;;;;;;12.37;3.50;;;;;;;35.60;40.23;96760.47;2074645;28;21059;-71
2023/09/09 11:34:56;;;;;;;7.73;3.60;;;;;;;36.32;40.04;96772.59;2074997;28;20431;-74
2023/09/09 11:35:58;;;;;;;6.10;3.63;;;;;;;37.38;38.79;96764.72;2071880;28;20489;-73
2023/09/09 11:37:01;;;;;;;4.70;3.20;;;;;;;37.00;38.36;96763.25;2072024;28;20506;-71
2023/09/09 11:38:03;;;;;;;8.50;4.23;;;;;;;36.20;39.27;96767.94;2076240;28;20426;-69
2023/09/09 11:39:06;;;;;;;10.60;3.70;;;;;;;35.22;40.71;96764.16;2073012;28;20802;-72
2023/09/09 11:40:08;;;;;;;7.60;4.70;;;;;;;35.77;41.66;96766.97;2074883;28;20427;-70
2023/09/09 11:41:32;;;;;;;10.13;4.20;;;;;;;35.95;39.62;96758.00;2074903;28;20488;-71
2023/09/09 11:42:33;;;;;;;7.13;5.33;;;;;;;35.06;41.13;96758.25;2077561;28;20782;-69
2023/09/09 11:43:34;;;;;;;12.70;4.67;;;;;;;35.99;41.88;96760.28;2077971;28;20419;-69
2023/09/09 11:44:43;;;;;;;12.13;4.10;;;;;;;37.03;38.88;96756.53;2075563;28;20422;-69
2023/09/09 11:45:45;;;;;;;10.33;4.00;;;;;;;37.78;37.85;96759.56;2076215;28;20431;-70
2023/09/09 11:46:49;;;;;;;6.83;3.70;;;;;;;37.48;37.73;96760.56;2073357;28;20434;-70
2023/09/09 11:47:50;;;;;;;16.90;4.40;;;;;;;36.79;39.27;96761.88;2074428;28;20434;-69
2023/09/09 11:48:52;;;;;;;7.33;3.80;;;;;;;36.87;39.28;96755.31;2078294;28;20893;-68
2023/09/09 11:49:54;;;;;;;9.13;3.80;;;;;;;37.15;39.57;96749.16;2077926;28;20818;-69
2023/09/09 11:50:56;;;;;;;11.30;3.83;;;;;;;37.10;38.42;96751.78;2075566;28;20427;-69